createdAt,value
2022-10-20T00:01:32.675Z,98642.34
2022-10-20T00:04:05.122Z,98642.75
2022-10-20T00:06:36.350Z,98642.31
2022-10-20T00:09:07.694Z,98645.91
2022-10-20T00:11:37.383Z,98649.22
2022-10-20T00:14:07.869Z,98636.03
2022-10-20T00:16:40.184Z,98639.16
2022-10-20T00:19:12.661Z,98639.06
2022-10-20T00:21:42.297Z,98628.94
2022-10-20T00:24:11.975Z,98623.75
2022-10-20T00:26:41.693Z,98626.06
2022-10-20T00:29:11.367Z,98616.97
2022-10-20T00:31:41.031Z,98620.19
2022-10-20T00:34:13.836Z,98632.75
2022-10-20T00:36:46.304Z,98629.19
2022-10-20T00:39:18.593Z,98628.88
2022-10-20T00:41:48.218Z,98624.59
2022-10-20T00:44:47.899Z,98626.16
2022-10-20T00:47:22.304Z,98631.59
2022-10-20T00:49:55.285Z,98622.44
2022-10-20T00:52:25.782Z,98626.44
2022-10-20T00:54:55.511Z,98626.38
2022-10-20T00:57:25.243Z,98620.53
2022-10-20T00:59:55.024Z,98613.88
2022-10-20T01:02:24.729Z,98607.13
2022-10-20T01:04:57.179Z,98595.03
2022-10-20T01:07:26.881Z,98599.13
2022-10-20T01:09:57.158Z,98587.97
2022-10-20T01:12:36.634Z,98573.13
2022-10-20T01:15:15.225Z,98572.22
2022-10-20T01:17:54.750Z,98565.63
2022-10-20T01:21:07.844Z,98562.94
2022-10-20T01:23:56.812Z,98569.19
2022-10-20T01:26:46.634Z,98562.00
2022-10-20T01:29:27.750Z,98557.03
2022-10-20T01:32:08.176Z,98560.09
2022-10-20T01:34:46.910Z,98561.25
2022-10-20T01:37:40.535Z,98563.53
2022-10-20T01:40:23.418Z,98562.38
2022-10-20T01:42:56.349Z,98558.34
2022-10-20T01:45:32.819Z,98551.03
2022-10-20T01:48:08.083Z,98545.56
2022-10-20T01:50:39.741Z,98544.38
2022-10-20T01:53:10.145Z,98538.44
2022-10-20T01:55:41.264Z,98542.38
2022-10-20T01:58:32.721Z,98534.53
2022-10-20T02:01:15.614Z,98527.59
2022-10-20T02:03:52.297Z,98522.91
2022-10-20T02:06:32.857Z,98523.28
2022-10-20T02:09:06.257Z,98522.44
2022-10-20T02:11:46.498Z,98519.53
2022-10-20T02:14:20.088Z,98517.63
2022-10-20T02:16:56.064Z,98519.56
2022-10-20T02:19:29.363Z,98523.22
2022-10-20T02:22:00.306Z,98522.28
2022-10-20T02:24:34.993Z,98511.97
2022-10-20T02:27:08.353Z,98510.66
2022-10-20T02:29:42.910Z,98502.09
2022-10-20T02:32:16.080Z,98496.75
2022-10-20T02:34:46.383Z,98500.63
2022-10-20T02:40:07.096Z,98499.97
2022-10-20T02:42:37.496Z,98505.88
2022-10-20T02:45:08.111Z,98496.56
2022-10-20T02:47:40.390Z,98494.97
2022-10-20T02:50:11.515Z,98490.16
2022-10-20T02:52:41.490Z,98487.88
2022-10-20T02:55:11.827Z,98491.56
2022-10-20T02:57:41.500Z,98492.53
2022-10-20T03:00:12.789Z,98495.94
2022-10-20T03:02:45.085Z,98484.53
2022-10-20T03:05:14.771Z,98481.09
2022-10-20T03:07:44.475Z,98488.53
2022-10-20T03:10:14.141Z,98482.38
2022-10-20T03:12:43.844Z,98491.63
2022-10-20T03:15:14.658Z,98501.19
2022-10-20T03:17:46.963Z,98499.50
2022-10-20T03:20:16.634Z,98497.34
2022-10-20T03:22:46.317Z,98490.25
2022-10-20T03:25:15.970Z,98495.84
2022-10-20T03:27:45.682Z,98496.72
2022-10-20T03:30:15.354Z,98493.59
2022-10-20T03:32:47.766Z,98486.44
2022-10-20T03:35:17.673Z,98492.41
2022-10-20T03:37:47.324Z,98495.06
2022-10-20T03:40:17.278Z,98490.69
2022-10-20T03:42:46.966Z,98491.88
2022-10-20T03:45:18.658Z,98491.06
2022-10-20T03:47:51.563Z,98493.09
2022-10-20T03:50:21.248Z,98498.22
2022-10-20T03:52:51.108Z,98494.38
2022-10-20T03:55:22.075Z,98486.03
2022-10-20T03:57:51.733Z,98487.59
2022-10-20T04:00:21.932Z,98475.97
2022-10-20T04:02:54.411Z,98470.84
2022-10-20T04:05:25.004Z,98471.63
2022-10-20T04:07:54.658Z,98463.03
2022-10-20T04:10:24.391Z,98466.66
2022-10-20T04:12:54.292Z,98466.31
2022-10-20T04:15:24.026Z,98462.78
2022-10-20T04:17:56.325Z,98472.97
2022-10-20T04:20:26.116Z,98456.88
2022-10-20T04:22:55.769Z,98467.13
2022-10-20T04:25:25.426Z,98455.22
2022-10-20T04:27:55.128Z,98455.59
2022-10-20T04:30:24.845Z,98453.53
2022-10-20T04:32:57.413Z,98451.28
2022-10-20T04:35:27.027Z,98447.69
2022-10-20T04:37:57.481Z,98444.94
2022-10-20T04:40:27.165Z,98456.41
2022-10-20T04:42:56.912Z,98455.69
2022-10-20T04:45:26.636Z,98459.16
2022-10-20T04:47:58.919Z,98451.72
2022-10-20T04:50:28.624Z,98455.16
2022-10-20T04:52:58.341Z,98449.25
2022-10-20T04:55:28.106Z,98456.00
2022-10-20T04:57:57.831Z,98436.03
2022-10-20T05:00:27.507Z,98440.91
2022-10-20T05:03:00.672Z,98440.34
2022-10-20T05:05:30.392Z,98434.16
2022-10-20T05:08:00.169Z,98436.56
2022-10-20T05:10:33.139Z,98441.25
2022-10-20T05:13:06.181Z,98435.22
2022-10-20T05:15:35.840Z,98430.06
2022-10-20T05:18:08.086Z,98428.53
2022-10-20T05:20:45.844Z,98429.78
2022-10-20T05:23:15.711Z,98425.00
2022-10-20T05:25:45.505Z,98420.72
2022-10-20T05:28:15.436Z,98409.38
2022-10-20T05:30:45.387Z,98411.00
2022-10-20T05:33:17.690Z,98405.88
2022-10-20T05:35:47.429Z,98398.88
2022-10-20T05:38:17.079Z,98389.88
2022-10-20T05:40:46.674Z,98387.97
2022-10-20T05:43:17.420Z,98380.09
2022-10-20T05:45:47.303Z,98372.97
2022-10-20T05:48:19.544Z,98379.28
2022-10-20T05:50:49.169Z,98390.19
2022-10-20T05:53:18.802Z,98392.63
2022-10-20T05:55:48.398Z,98389.13
2022-10-20T05:58:19.616Z,98396.44
2022-10-20T06:00:53.844Z,98393.34
2022-10-20T06:03:28.301Z,98386.25
2022-10-20T06:06:00.482Z,98377.28
2022-10-20T06:08:32.996Z,98376.94
2022-10-20T06:11:06.927Z,98379.22
2022-10-20T06:13:36.957Z,98375.66
2022-10-20T06:16:07.757Z,98369.84
2022-10-20T06:18:40.759Z,98382.09
2022-10-20T06:21:13.014Z,98382.75
2022-10-20T06:23:42.833Z,98393.41
2022-10-20T06:26:17.536Z,98394.91
2022-10-20T06:28:48.941Z,98395.22
2022-10-20T06:31:20.879Z,98395.66
2022-10-20T06:33:54.082Z,98399.19
2022-10-20T06:36:25.356Z,98394.13
2022-10-20T06:38:57.094Z,98398.81
2022-10-20T06:41:27.872Z,98397.22
2022-10-20T06:43:59.567Z,98392.91
2022-10-20T06:46:30.979Z,98397.25
2022-10-20T06:49:04.025Z,98393.81
2022-10-20T06:51:34.054Z,98393.06
2022-10-20T06:54:04.302Z,98385.59
2022-10-20T06:56:36.088Z,98390.44
2022-10-20T06:59:06.358Z,98404.16
2022-10-20T07:01:37.753Z,98415.09
2022-10-20T07:04:13.304Z,98406.03
2022-10-20T07:06:44.539Z,98400.50
2022-10-20T07:09:17.609Z,98408.41
2022-10-20T07:11:47.506Z,98410.84
2022-10-20T07:14:17.440Z,98404.25
2022-10-20T07:16:47.152Z,98402.75
2022-10-20T07:19:19.457Z,98406.72
2022-10-20T07:21:49.271Z,98410.25
2022-10-20T07:24:19.076Z,98406.31
2022-10-20T07:26:48.953Z,98400.88
2022-10-20T07:29:20.276Z,98396.19
2022-10-20T07:31:51.290Z,98396.53
2022-10-20T07:34:26.800Z,98394.59
2022-10-20T07:36:57.975Z,98403.19
2022-10-20T07:39:28.577Z,98401.25
2022-10-20T07:41:58.312Z,98392.97
2022-10-20T07:44:27.957Z,98394.56
2022-10-20T07:46:57.752Z,98398.13
2022-10-20T07:49:45.577Z,98402.47
2022-10-20T07:52:16.821Z,98395.38
2022-10-20T07:54:46.882Z,98392.19
2022-10-20T07:57:16.594Z,98391.38
2022-10-20T07:59:46.406Z,98390.56
2022-10-20T08:02:16.614Z,98393.34
2022-10-20T08:04:49.002Z,98388.81
2022-10-20T08:07:19.068Z,98401.88
2022-10-20T08:09:48.767Z,98401.31
2022-10-20T08:12:18.490Z,98389.41
2022-10-20T08:14:48.283Z,98372.22
2022-10-20T08:17:17.947Z,98375.72
2022-10-20T08:20:06.154Z,98371.13
2022-10-20T08:22:36.089Z,98384.75
2022-10-20T08:25:06.483Z,98389.09
2022-10-20T08:27:36.176Z,98377.88
2022-10-20T08:30:22.962Z,98383.81
2022-10-20T08:32:54.637Z,98373.16
2022-10-20T08:35:27.014Z,98368.56
2022-10-20T08:37:57.462Z,98366.13
2022-10-20T08:40:28.911Z,98368.03
2022-10-20T08:42:58.899Z,98371.47
2022-10-20T08:45:32.723Z,98365.44
2022-10-20T08:48:06.127Z,98361.72
2022-10-20T08:50:39.237Z,98360.91
2022-10-20T08:53:11.924Z,98372.72
2022-10-20T08:55:42.259Z,98375.50
2022-10-20T08:58:16.596Z,98381.44
2022-10-20T09:00:47.669Z,98390.81
2022-10-20T09:03:22.038Z,98388.22
2022-10-20T09:05:59.455Z,98377.13
2022-10-20T09:08:32.653Z,98381.09
2022-10-20T09:11:03.507Z,98395.63
2022-10-20T09:13:35.647Z,98385.34
2022-10-20T09:16:09.265Z,98391.06
2022-10-20T09:18:39.099Z,98397.28
2022-10-20T09:21:16.368Z,98394.00
2022-10-20T09:23:48.598Z,98393.31
2022-10-20T09:26:30.913Z,98387.91
2022-10-20T09:29:14.221Z,98391.91
2022-10-20T09:31:46.347Z,98378.75
2022-10-20T09:34:27.698Z,98389.03
2022-10-20T09:37:05.697Z,98378.56
2022-10-20T09:39:45.473Z,98381.78
2022-10-20T09:42:17.972Z,98380.31
2022-10-20T09:44:52.744Z,98381.19
2022-10-20T09:47:23.580Z,98388.22
2022-10-20T09:50:01.188Z,98397.91
2022-10-20T09:52:44.763Z,98400.00
2022-10-20T09:55:30.073Z,98381.00
2022-10-20T09:58:02.997Z,98387.66
2022-10-20T10:00:37.939Z,98388.25
2022-10-20T10:03:14.581Z,98401.84
2022-10-20T10:05:44.303Z,98412.41
2022-10-20T10:08:20.125Z,98401.75
2022-10-20T10:11:02.080Z,98388.88
2022-10-20T10:13:34.010Z,98405.06
2022-10-20T10:16:09.944Z,98401.31
2022-10-20T10:18:44.212Z,98399.09
2022-10-20T10:21:18.925Z,98401.34
2022-10-20T10:23:58.858Z,98400.63
2022-10-20T10:26:46.773Z,98406.16
2022-10-20T10:29:27.345Z,98406.34
2022-10-20T10:32:03.392Z,98393.66
2022-10-20T10:34:42.762Z,98387.72
2022-10-20T10:37:17.403Z,98382.88
2022-10-20T10:39:50.130Z,98379.28
2022-10-20T10:42:39.841Z,98389.72
2022-10-20T10:45:22.392Z,98410.56
2022-10-20T10:48:18.969Z,98396.22
2022-10-20T10:50:56.000Z,98398.88
2022-10-20T10:53:46.577Z,98416.88
2022-10-20T10:56:32.443Z,98415.53
2022-10-20T10:59:08.646Z,98402.84
2022-10-20T11:01:54.133Z,98403.41
2022-10-20T11:04:52.544Z,98392.84
2022-10-20T11:07:33.340Z,98389.53
2022-10-20T11:10:12.986Z,98385.19
2022-10-20T11:13:10.198Z,98370.56
2022-10-20T11:15:53.804Z,98365.03
2022-10-20T11:18:45.020Z,98351.47
2022-10-20T11:21:25.599Z,98365.16
2022-10-20T11:24:20.615Z,98354.91
2022-10-20T11:26:54.627Z,98349.09
2022-10-20T11:29:33.141Z,98343.59
2022-10-20T11:32:13.298Z,98353.09
2022-10-20T11:34:53.039Z,98348.25
2022-10-20T11:37:28.507Z,98338.53
2022-10-20T11:40:07.565Z,98337.56
2022-10-20T11:42:44.553Z,98351.88
2022-10-20T11:45:34.558Z,98350.16
2022-10-20T11:48:15.145Z,98345.25
2022-10-20T11:50:51.305Z,98330.47
2022-10-20T11:53:39.905Z,98329.78
2022-10-20T11:56:43.543Z,98341.56
2022-10-20T11:59:48.242Z,98319.63
2022-10-20T12:02:47.091Z,98331.13
2022-10-20T12:05:43.916Z,98321.94
2022-10-20T12:08:37.574Z,98311.47
2022-10-20T12:11:16.467Z,98312.06
2022-10-20T12:14:00.629Z,98295.03
2022-10-20T12:17:00.388Z,98292.41
2022-10-20T12:19:33.882Z,98294.22
2022-10-20T12:22:05.394Z,98301.78
2022-10-20T12:24:39.452Z,98305.75
2022-10-20T12:27:21.512Z,98293.91
2022-10-20T12:29:56.979Z,98291.97
2022-10-20T12:32:37.740Z,98285.75
2022-10-20T12:35:30.721Z,98271.81
2022-10-20T12:38:02.523Z,98287.94
2022-10-20T12:40:35.285Z,98293.34
2022-10-20T12:43:05.101Z,98271.00
2022-10-20T12:45:42.997Z,98282.47
2022-10-20T12:48:21.985Z,98273.09
2022-10-20T12:50:55.594Z,98276.19
2022-10-20T12:53:28.944Z,98276.94
2022-10-20T12:56:02.359Z,98269.06
2022-10-20T12:58:34.393Z,98284.84
2022-10-20T13:01:13.871Z,98292.41
2022-10-20T13:03:47.109Z,98293.56
2022-10-20T13:06:47.499Z,98288.81
2022-10-20T13:09:26.871Z,98296.38
2022-10-20T13:12:06.046Z,98286.13
2022-10-20T13:14:51.451Z,98279.50
2022-10-20T13:17:33.685Z,98259.06
2022-10-20T13:20:10.176Z,98242.19
2022-10-20T13:22:48.531Z,98230.88
2022-10-20T13:25:38.316Z,98228.47
2022-10-20T13:28:10.645Z,98230.91
2022-10-20T13:30:53.486Z,98227.25
2022-10-20T13:33:38.861Z,98234.81
2022-10-20T13:36:18.585Z,98244.50
2022-10-20T13:38:57.004Z,98243.75
2022-10-20T13:41:37.006Z,98233.22
2022-10-20T13:44:16.602Z,98217.34
2022-10-20T13:46:58.358Z,98222.75
2022-10-20T13:49:48.277Z,98220.00
2022-10-20T13:52:21.697Z,98223.44
2022-10-20T13:54:55.137Z,98214.88
2022-10-20T13:57:30.403Z,98223.16
2022-10-20T14:00:02.528Z,98236.59
2022-10-20T14:02:35.193Z,98244.81
2022-10-20T14:05:08.141Z,98243.75
2022-10-20T14:07:42.940Z,98247.31
2022-10-20T14:10:28.027Z,98247.00
2022-10-20T14:12:59.127Z,98246.50
2022-10-20T14:15:35.822Z,98241.44
2022-10-20T14:18:07.884Z,98241.91
2022-10-20T14:20:41.934Z,98240.34
2022-10-20T14:23:14.197Z,98243.06
2022-10-20T14:25:48.069Z,98241.91
2022-10-20T14:28:22.573Z,98225.72
2022-10-20T14:30:54.506Z,98217.38
2022-10-20T14:33:24.406Z,98224.47
2022-10-20T14:35:56.526Z,98241.72
2022-10-20T14:38:38.990Z,98232.34
2022-10-20T14:41:12.027Z,98225.59
2022-10-20T14:43:46.221Z,98230.78
2022-10-20T14:46:25.415Z,98219.28
2022-10-20T14:48:55.234Z,98202.41
2022-10-20T14:51:40.370Z,98204.81
2022-10-20T14:54:17.916Z,98207.53
2022-10-20T14:56:52.343Z,98201.53
2022-10-20T14:59:24.712Z,98199.19
2022-10-20T15:02:08.828Z,98192.13
2022-10-20T15:04:39.958Z,98206.00
2022-10-20T15:07:16.317Z,98218.16
2022-10-20T15:09:48.176Z,98215.47
2022-10-20T15:12:22.934Z,98217.00
2022-10-20T15:14:54.413Z,98219.75
2022-10-20T15:17:35.166Z,98200.16
2022-10-20T15:20:37.568Z,98182.88
2022-10-20T15:23:11.259Z,98202.56
2022-10-20T15:25:48.453Z,98201.69
2022-10-20T15:28:29.750Z,98208.84
2022-10-20T15:31:00.035Z,98206.44
2022-10-20T15:33:30.127Z,98230.34
2022-10-20T15:36:01.796Z,98235.97
2022-10-20T15:38:31.733Z,98219.88
2022-10-20T15:41:03.620Z,98219.53
2022-10-20T15:43:35.938Z,98204.22
2022-10-20T15:46:06.098Z,98203.06
2022-10-20T15:48:35.842Z,98205.78
2022-10-20T15:51:06.150Z,98215.53
2022-10-20T15:53:35.894Z,98222.28
2022-10-20T15:56:05.663Z,98212.88
2022-10-20T15:58:39.769Z,98184.50
2022-10-20T16:01:10.396Z,98180.97
2022-10-20T16:03:41.463Z,98204.94
2022-10-20T16:06:13.661Z,98200.31
2022-10-20T16:08:43.493Z,98202.72
2022-10-20T16:11:14.747Z,98197.47
2022-10-20T16:13:47.222Z,98186.09
2022-10-20T16:16:18.906Z,98194.53
2022-10-20T16:18:49.163Z,98208.19
2022-10-20T16:21:18.860Z,98207.78
2022-10-20T16:23:48.501Z,98196.00
2022-10-20T16:26:18.159Z,98208.22
2022-10-20T16:28:50.806Z,98233.31
2022-10-20T16:31:21.134Z,98232.56
2022-10-20T16:33:50.941Z,98224.34
2022-10-20T16:36:21.880Z,98207.13
2022-10-20T16:38:51.613Z,98185.84
2022-10-20T16:41:21.393Z,98177.59
2022-10-20T16:43:55.400Z,98199.47
2022-10-20T16:46:29.012Z,98210.47
2022-10-20T16:48:58.809Z,98199.47
2022-10-20T16:51:28.523Z,98210.59
2022-10-20T16:54:03.016Z,98194.53
2022-10-20T16:56:32.942Z,98196.91
2022-10-20T16:59:05.500Z,98206.69
2022-10-20T17:01:35.127Z,98218.50
2022-10-20T17:04:05.070Z,98226.38
2022-10-20T17:06:35.097Z,98224.06
2022-10-20T17:09:04.827Z,98204.81
2022-10-20T17:11:35.803Z,98183.16
2022-10-20T17:14:08.115Z,98179.56
2022-10-20T17:16:39.875Z,98158.75
2022-10-20T17:19:09.850Z,98141.34
2022-10-20T17:21:39.571Z,98158.59
2022-10-20T17:24:13.155Z,98172.91
2022-10-20T17:26:43.808Z,98160.34
2022-10-20T17:29:16.128Z,98160.31
2022-10-20T17:31:45.814Z,98155.44
2022-10-20T17:34:15.537Z,98160.94
2022-10-20T17:36:45.246Z,98141.06
2022-10-20T17:39:18.076Z,98139.84
2022-10-20T17:41:49.875Z,98157.97
2022-10-20T17:44:26.711Z,98174.41
2022-10-20T17:46:56.591Z,98177.66
2022-10-20T17:49:26.168Z,98177.31
2022-10-20T17:51:56.459Z,98163.25
2022-10-20T17:54:26.241Z,98163.66
2022-10-20T17:56:55.947Z,98174.56
2022-10-20T17:59:28.266Z,98206.38
2022-10-20T18:01:58.744Z,98210.75
2022-10-20T18:04:28.480Z,98215.06
2022-10-20T18:06:58.132Z,98223.75
2022-10-20T18:09:27.722Z,98226.75
2022-10-20T18:11:57.385Z,98215.53
2022-10-20T18:14:29.684Z,98225.41
2022-10-20T18:16:59.455Z,98223.38
2022-10-20T18:19:29.424Z,98233.53
2022-10-20T18:21:59.245Z,98231.94
2022-10-20T18:24:28.866Z,98215.88
2022-10-20T18:26:58.758Z,98223.72
2022-10-20T18:29:31.017Z,98222.84
2022-10-20T18:32:00.858Z,98212.25
2022-10-20T18:34:30.481Z,98234.63
2022-10-20T18:37:03.580Z,98245.22
2022-10-20T18:39:34.293Z,98245.41
2022-10-20T18:42:04.087Z,98254.16
2022-10-20T18:44:36.422Z,98258.75
2022-10-20T18:47:06.154Z,98252.16
2022-10-20T18:49:36.356Z,98235.31
2022-10-20T18:52:06.337Z,98233.03
2022-10-20T18:54:36.045Z,98217.34
2022-10-20T18:57:06.935Z,98220.03
2022-10-20T18:59:39.360Z,98215.69
2022-10-20T19:02:09.316Z,98224.75
2022-10-20T19:04:38.945Z,98211.78
2022-10-20T19:07:08.838Z,98200.66
2022-10-20T19:09:38.723Z,98185.81
2022-10-20T19:12:10.579Z,98192.16
2022-10-20T19:14:43.176Z,98193.59
2022-10-20T19:17:12.886Z,98196.41
2022-10-20T19:19:44.694Z,98187.66
2022-10-20T19:22:14.741Z,98177.13
2022-10-20T19:24:44.554Z,98169.00
2022-10-20T19:27:26.173Z,98171.72
2022-10-20T19:30:01.074Z,98172.38
2022-10-20T19:32:30.799Z,98166.25
2022-10-20T19:35:00.707Z,98174.41
2022-10-20T19:37:30.394Z,98182.53
2022-10-20T19:40:00.532Z,98199.53
2022-10-20T19:42:30.268Z,98202.69
2022-10-20T19:45:02.679Z,98206.16
2022-10-20T19:47:32.373Z,98197.56
2022-10-20T19:50:02.191Z,98190.47
2022-10-20T19:52:31.902Z,98186.50
2022-10-20T19:55:01.692Z,98192.41
2022-10-20T19:57:31.420Z,98189.28
2022-10-20T20:00:03.696Z,98175.59
2022-10-20T20:02:33.426Z,98176.41
2022-10-20T20:05:03.396Z,98162.28
2022-10-20T20:07:33.163Z,98165.41
2022-10-20T20:10:02.821Z,98177.66
2022-10-20T20:12:32.673Z,98180.41
2022-10-20T20:15:05.024Z,98178.94
2022-10-20T20:17:35.029Z,98164.38
2022-10-20T20:20:04.957Z,98158.78
2022-10-20T20:22:34.720Z,98144.28
2022-10-20T20:25:04.499Z,98146.25
2022-10-20T20:27:34.234Z,98139.19
2022-10-20T20:30:07.565Z,98138.78
2022-10-20T20:32:38.634Z,98151.38
2022-10-20T20:35:11.381Z,98162.03
2022-10-20T20:37:41.193Z,98167.13
2022-10-20T20:40:12.037Z,98170.69
2022-10-20T20:42:41.789Z,98165.53
2022-10-20T20:45:14.348Z,98165.56
2022-10-20T20:47:46.835Z,98162.47
2022-10-20T20:50:16.809Z,98153.84
2022-10-20T20:52:46.690Z,98153.41
2022-10-20T20:55:16.586Z,98159.66
2022-10-20T20:57:46.325Z,98169.13
2022-10-20T21:00:19.477Z,98176.19
2022-10-20T21:02:50.079Z,98186.78
2022-10-20T21:05:20.047Z,98191.63
2022-10-20T21:07:49.852Z,98177.50
2022-10-20T21:10:19.815Z,98177.78
2022-10-20T21:12:49.618Z,98171.47
2022-10-20T21:15:22.184Z,98166.00
2022-10-20T21:17:52.899Z,98162.81
2022-10-20T21:20:22.619Z,98169.47
2022-10-20T21:22:52.294Z,98177.41
2022-10-20T21:25:22.081Z,98178.94
2022-10-20T21:27:51.822Z,98188.41
2022-10-20T21:30:24.214Z,98201.31
2022-10-20T21:32:53.956Z,98182.53
2022-10-20T21:35:23.689Z,98160.16
2022-10-20T21:37:53.408Z,98168.41
2022-10-20T21:40:23.084Z,98156.13
2022-10-20T21:42:52.777Z,98149.56
2022-10-20T21:45:25.000Z,98148.75
2022-10-20T21:47:57.661Z,98138.94
2022-10-20T21:50:27.431Z,98156.94
2022-10-20T21:52:57.192Z,98151.06
2022-10-20T21:55:27.005Z,98153.09
2022-10-20T21:57:56.760Z,98142.13
2022-10-20T22:00:29.052Z,98153.53
2022-10-20T22:03:00.356Z,98153.88
2022-10-20T22:05:30.075Z,98154.25
2022-10-20T22:07:59.719Z,98143.66
2022-10-20T22:10:29.710Z,98139.34
2022-10-20T22:12:59.442Z,98139.38
2022-10-20T22:15:31.826Z,98134.56
2022-10-20T22:18:01.414Z,98126.28
2022-10-20T22:20:31.019Z,98125.09
2022-10-20T22:23:02.778Z,98121.97
2022-10-20T22:25:32.652Z,98120.09
2022-10-20T22:28:02.233Z,98126.81
2022-10-20T22:30:34.476Z,98120.25
2022-10-20T22:33:04.653Z,98117.84
2022-10-20T22:35:34.326Z,98110.81
2022-10-20T22:38:04.001Z,98113.50
2022-10-20T22:40:33.637Z,98098.66
2022-10-20T22:43:03.509Z,98091.84
2022-10-20T22:45:35.918Z,98097.41
2022-10-20T22:48:05.646Z,98083.66
2022-10-20T22:50:35.330Z,98093.06
2022-10-20T22:53:04.993Z,98092.66
2022-10-20T22:55:34.665Z,98085.97
2022-10-20T22:58:04.397Z,98086.00
2022-10-20T23:00:36.732Z,98085.63
2022-10-20T23:03:06.703Z,98087.50
2022-10-20T23:05:36.496Z,98093.06
2022-10-20T23:08:06.410Z,98077.91
2022-10-20T23:10:36.342Z,98074.22
2022-10-20T23:13:06.102Z,98074.28
2022-10-20T23:15:38.468Z,98080.53
2022-10-20T23:18:08.142Z,98084.47
2022-10-20T23:20:37.869Z,98084.44
2022-10-20T23:23:07.606Z,98089.63
2022-10-20T23:25:37.399Z,98097.88
2022-10-20T23:28:07.471Z,98103.03
2022-10-20T23:30:40.140Z,98101.13
2022-10-20T23:33:09.812Z,98099.25
2022-10-20T23:35:39.965Z,98099.28
2022-10-20T23:38:11.342Z,98087.50
2022-10-20T23:40:41.162Z,98081.22
2022-10-20T23:43:10.855Z,98081.88
2022-10-20T23:45:43.207Z,98077.16
2022-10-20T23:48:13.842Z,98063.13
2022-10-20T23:50:43.769Z,98069.38
2022-10-20T23:53:13.816Z,98058.72
2022-10-20T23:55:43.822Z,98065.72
2022-10-20T23:58:13.966Z,98062.22
